Time;durP1;ratioP1;P1;durP2;ratioP2;P2;SDS_P1;SDS_P2;PMS_P1;PMS_P2;Temp;Humidity;BMP_temperature;BMP_pressure;BME280_temperature;BME280_humidity;BME280_pressure;Samples;Min_cycle;Max_cycle;Signal;HPM_P1;HPM_P2
2023/04/25 00:01:35;;;;;;;24.00;7.00;;;7.40;92.80;;;;;;5012757;28;20557;-80
2023/04/25 00:04:02;;;;;;;10.53;4.00;;;7.50;59.30;;;;;;4996669;28;20494;-81
2023/04/25 00:06:31;;;;;;;7.83;4.73;;;7.60;42.50;;;;;;4997107;28;20951;-82
2023/04/25 00:08:58;;;;;;;14.20;4.90;;;7.70;20.80;;;;;;5016423;28;20454;-81
2023/04/25 00:11:25;;;;;;;20.67;8.87;;;7.70;1.00;;;;;;5014483;28;20455;-81
2023/04/25 00:13:52;;;;;;;17.63;7.87;;;7.80;1.00;;;;;;4996830;28;20457;-81
2023/04/25 00:16:19;;;;;;;29.10;26.27;;;7.80;4.90;;;;;;5006501;28;20529;-82
2023/04/25 00:18:51;;;;;;;13.43;6.73;;;7.80;1.00;;;;;;5015912;28;20487;-81
2023/04/25 00:21:18;;;;;;;10.60;5.13;;;7.80;17.50;;;;;;5003950;28;20579;-81
2023/04/25 00:23:46;;;;;;;8.80;4.83;;;7.90;28.90;;;;;;5013927;28;20454;-81
2023/04/25 00:26:13;;;;;;;5.77;4.57;;;7.90;27.30;;;;;;5016311;28;20465;-80
2023/04/25 00:28:40;;;;;;;12.53;4.47;;;8.00;15.80;;;;;;5018537;28;20438;-80
2023/04/25 00:31:07;;;;;;;13.80;5.67;;;8.00;1.00;;;;;;4997018;28;21018;-82
2023/04/25 00:33:34;;;;;;;7.17;4.33;;;8.00;2.50;;;;;;4997989;28;20455;-81
2023/04/25 00:36:01;;;;;;;8.33;3.67;;;8.00;1.00;;;;;;4998132;28;20908;-79
2023/04/25 00:38:28;;;;;;;8.17;4.03;;;7.90;5.70;;;;;;4998208;28;20486;-82
2023/04/25 00:40:57;;;;;;;12.70;5.07;;;7.90;22.10;;;;;;4992705;28;20457;-82
2023/04/25 00:43:26;;;;;;;12.03;4.70;;;8.00;19.40;;;;;;4997666;28;20894;-80
2023/04/25 00:45:53;;;;;;;5.30;3.53;;;8.00;18.30;;;;;;5000355;28;20479;-82
2023/04/25 00:48:23;;;;;;;5.23;4.20;;;8.00;22.10;;;;;;5018056;28;20450;-81
2023/04/25 00:50:53;;;;;;;6.80;3.60;;;8.00;32.20;;;;;;5016482;28;20459;-80
2023/04/25 00:53:20;;;;;;;4.77;3.13;;;8.00;32.10;;;;;;5014639;28;20540;-82
2023/04/25 00:55:47;;;;;;;11.17;4.27;;;8.00;26.70;;;;;;4998091;28;20480;-82
2023/04/25 00:58:15;;;;;;;10.53;4.10;;;8.00;22.70;;;;;;4998370;28;20480;-81
2023/04/25 01:00:43;;;;;;;6.37;3.80;;;8.10;42.90;;;;;;5016860;28;20852;-81
2023/04/25 01:03:10;;;;;;;6.87;3.80;;;8.10;52.80;;;;;;5017088;28;20537;-81
2023/04/25 01:05:37;;;;;;;6.73;3.80;;;8.10;31.40;;;;;;5017311;28;20998;-80
2023/04/25 01:08:04;;;;;;;6.03;3.43;;;8.10;52.60;;;;;;5005682;28;20453;-81
2023/04/25 01:10:31;;;;;;;6.57;3.73;;;8.10;57.90;;;;;;4997186;28;20454;-80
2023/04/25 01:12:57;;;;;;;9.93;4.37;;;8.00;99.90;;;;;;4997861;28;20970;-82
2023/04/25 01:15:25;;;;;;;8.10;3.50;;;8.00;99.90;;;;;;4997791;28;20489;-79
2023/04/25 01:17:52;;;;;;;7.23;3.80;;;7.80;99.90;;;;;;5010376;28;20462;-79
2023/04/25 01:20:22;;;;;;;9.43;4.60;;;7.90;99.90;;;;;;5036404;28;20454;-82
2023/04/25 01:22:50;;;;;;;5.20;3.30;;;7.90;99.90;;;;;;5023193;28;20843;-81
2023/04/25 01:25:18;;;;;;;8.70;4.03;;;7.90;99.90;;;;;;4975889;28;1110144;-83
2023/04/25 01:27:45;;;;;;;15.07;5.70;;;7.90;99.90;;;;;;5011417;28;20466;-81
2023/04/25 01:30:12;;;;;;;8.57;4.57;;;7.80;99.90;;;;;;4999767;28;20831;-81
2023/04/25 01:32:39;;;;;;;11.00;5.40;;;7.70;99.90;;;;;;4998908;28;20466;-81
2023/04/25 01:35:09;;;;;;;9.20;5.07;;;7.70;99.90;;;;;;4998243;28;20498;-81
2023/04/25 01:37:36;;;;;;;9.80;5.70;;;7.70;99.90;;;;;;5001836;28;20501;-81
2023/04/25 01:40:06;;;;;;;16.47;5.70;;;7.70;99.90;;;;;;5017210;28;20500;-80
2023/04/25 01:42:33;;;;;;;10.50;6.37;;;7.70;99.90;;;;;;5015346;28;20472;-82
2023/04/25 01:44:59;;;;;;;9.50;4.70;;;7.60;99.90;;;;;;5017529;28;20470;-81
2023/04/25 01:47:26;;;;;;;13.37;5.10;;;7.70;99.90;;;;;;5016610;28;20447;-81
2023/04/25 01:49:53;;;;;;;10.20;6.07;;;7.70;99.90;;;;;;4997865;28;20981;-80
2023/04/25 01:52:20;;;;;;;13.63;6.00;;;7.70;99.90;;;;;;4996993;28;20827;-81
2023/04/25 01:54:47;;;;;;;11.00;5.07;;;7.60;99.90;;;;;;5007140;28;20485;-81
2023/04/25 01:57:15;;;;;;;9.90;5.70;;;7.70;99.90;;;;;;4997300;28;20461;-80
2023/04/25 01:59:43;;;;;;;13.43;6.13;;;7.70;99.90;;;;;;4999032;28;20499;-82
2023/04/25 02:02:10;;;;;;;11.73;5.83;;;7.70;99.90;;;;;;4997016;28;20967;-83
2023/04/25 02:04:37;;;;;;;11.40;6.40;;;7.70;99.90;;;;;;5014034;28;20474;-80
2023/04/25 02:07:04;;;;;;;11.60;6.20;;;7.70;99.90;;;;;;5017091;28;20449;-81
2023/04/25 02:09:31;;;;;;;11.57;7.47;;;7.80;99.90;;;;;;5001964;28;20452;-82
2023/04/25 02:11:59;;;;;;;11.97;6.27;;;7.80;99.90;;;;;;5027941;28;20466;-81
2023/04/25 02:14:28;;;;;;;9.97;7.23;;;7.80;99.90;;;;;;5017115;28;20480;-81
2023/04/25 02:16:55;;;;;;;9.77;6.20;;;7.80;99.90;;;;;;5016687;28;20515;-80
2023/04/25 02:19:22;;;;;;;11.90;5.20;;;7.80;99.90;;;;;;5004529;28;20491;-82
2023/04/25 02:21:48;;;;;;;13.27;6.37;;;7.70;99.90;;;;;;5022371;28;20462;-81
2023/04/25 02:24:15;;;;;;;10.80;5.30;;;7.70;99.90;;;;;;5004097;28;20887;-80
2023/04/25 02:26:42;;;;;;;8.90;5.43;;;7.80;99.90;;;;;;4997222;28;20457;-80
2023/04/25 02:29:09;;;;;;;9.53;5.40;;;7.80;99.90;;;;;;5012024;28;20833;-81
2023/04/25 02:31:37;;;;;;;8.30;5.07;;;7.80;99.90;;;;;;5015123;28;20458;-80
2023/04/25 02:34:04;;;;;;;13.30;5.40;;;7.50;99.90;;;;;;5002864;28;20470;-80
2023/04/25 02:36:34;;;;;;;11.17;5.40;;;7.50;99.90;;;;;;4996640;28;20462;-81
2023/04/25 02:39:00;;;;;;;12.70;5.10;;;7.60;99.90;;;;;;5005084;28;20483;-79
2023/04/25 02:41:27;;;;;;;12.23;4.80;;;7.50;99.90;;;;;;5014668;28;20457;-80
2023/04/25 02:43:54;;;;;;;9.23;6.30;;;7.50;99.90;;;;;;5005245;28;20786;-80
2023/04/25 02:46:21;;;;;;;13.20;5.67;;;7.50;99.90;;;;;;5006028;28;20465;-79
2023/04/25 02:48:49;;;;;;;7.07;5.17;;;7.50;99.90;;;;;;5016859;28;20449;-81
2023/04/25 02:51:17;;;;;;;9.80;5.80;;;7.50;99.90;;;;;;5007612;28;20458;-81
2023/04/25 02:53:43;;;;;;;8.00;4.80;;;7.50;99.90;;;;;;4996961;28;20461;-80
2023/04/25 02:56:10;;;;;;;8.53;4.47;;;7.50;99.90;;;;;;5002036;28;21103;-80
2023/04/25 02:58:37;;;;;;;8.90;5.00;;;7.50;99.90;;;;;;5016528;28;20456;-81
2023/04/25 03:01:04;;;;;;;10.27;7.43;;;7.40;99.90;;;;;;5007483;28;20456;-81
2023/04/25 03:03:30;;;;;;;10.43;6.10;;;7.40;99.90;;;;;;5006094;28;20454;-80
2023/04/25 03:05:59;;;;;;;8.40;5.00;;;7.40;99.90;;;;;;5002828;28;20558;-82
2023/04/25 03:08:29;;;;;;;7.80;5.77;;;7.40;99.90;;;;;;5006652;28;20451;-80
2023/04/25 03:10:57;;;;;;;10.90;6.13;;;7.40;99.90;;;;;;5003671;28;20464;-82
2023/04/25 03:13:24;;;;;;;14.50;5.93;;;7.30;99.90;;;;;;5015902;28;20468;-81
2023/04/25 03:15:50;;;;;;;10.10;5.17;;;7.30;99.90;;;;;;5012176;28;20477;-81
2023/04/25 03:18:17;;;;;;;6.63;4.70;;;7.30;99.90;;;;;;4997305;28;20468;-80
2023/04/25 03:20:44;;;;;;;11.87;5.40;;;7.30;99.90;;;;;;5000693;28;20496;-81
2023/04/25 03:23:12;;;;;;;11.83;4.97;;;7.30;99.90;;;;;;5015161;28;20465;-82
2023/04/25 03:25:39;;;;;;;9.40;5.17;;;7.30;99.90;;;;;;5016864;28;20500;-81
2023/04/25 03:28:06;;;;;;;9.43;4.70;;;7.30;99.90;;;;;;5017157;28;21018;-81
2023/04/25 03:30:33;;;;;;;12.13;5.80;;;7.30;99.90;;;;;;5016955;28;20955;-81
2023/04/25 03:32:59;;;;;;;8.57;5.10;;;7.30;99.90;;;;;;5016746;28;20461;-81
2023/04/25 03:35:26;;;;;;;11.27;5.97;;;7.40;99.90;;;;;;4998218;28;20481;-81
2023/04/25 03:37:53;;;;;;;10.47;6.30;;;7.30;99.90;;;;;;4997477;28;20472;-80
2023/04/25 03:40:21;;;;;;;11.70;5.70;;;7.30;99.90;;;;;;4996831;28;20505;-79
2023/04/25 03:42:48;;;;;;;13.73;6.00;;;7.30;99.90;;;;;;5013852;28;20446;-78
2023/04/25 03:45:15;;;;;;;8.90;5.77;;;7.30;99.90;;;;;;5021218;28;20466;-79
2023/04/25 03:47:41;;;;;;;13.60;6.40;;;7.30;99.90;;;;;;5015022;28;20461;-80
2023/04/25 03:50:09;;;;;;;14.50;7.37;;;7.40;99.90;;;;;;5015263;28;21230;-81
2023/04/25 03:52:36;;;;;;;15.97;8.70;;;7.40;99.90;;;;;;5017131;28;20459;-80
2023/04/25 03:55:04;;;;;;;12.83;6.40;;;7.40;99.90;;;;;;5017873;28;20564;-80
2023/04/25 03:57:32;;;;;;;10.30;6.53;;;7.40;99.90;;;;;;5011237;28;20899;-80
2023/04/25 03:59:59;;;;;;;12.37;7.03;;;7.30;99.90;;;;;;5021264;28;20486;-81
2023/04/25 04:02:26;;;;;;;12.73;6.63;;;7.30;99.90;;;;;;5026117;28;20471;-81
2023/04/25 04:04:53;;;;;;;11.67;6.53;;;7.40;99.90;;;;;;5024052;28;21019;-81
2023/04/25 04:07:19;;;;;;;14.13;6.43;;;7.40;99.90;;;;;;5015848;28;20546;-80
2023/04/25 04:09:46;;;;;;;7.87;2.93;;;7.20;99.90;;;;;;5007892;28;20540;-81
2023/04/25 04:12:13;;;;;;;11.87;2.37;;;7.00;99.90;;;;;;5016702;28;20449;-79
2023/04/25 04:14:41;;;;;;;7.50;2.87;;;6.70;99.90;;;;;;5013697;28;20492;-81
2023/04/25 04:17:08;;;;;;;7.97;2.97;;;6.50;99.90;;;;;;4999114;28;20549;-80
2023/04/25 04:19:35;;;;;;;4.13;2.40;;;6.50;99.90;;;;;;5029639;28;20552;-80
2023/04/25 04:22:02;;;;;;;6.33;3.30;;;6.30;99.90;;;;;;5026115;28;20462;-80
2023/04/25 04:24:28;;;;;;;8.50;3.20;;;6.30;99.90;;;;;;5027899;28;21044;-80
2023/04/25 04:26:56;;;;;;;8.90;3.03;;;6.40;99.90;;;;;;5031334;28;20434;-80
2023/04/25 04:29:23;;;;;;;9.20;3.20;;;6.40;99.90;;;;;;5016923;28;20506;-81
2023/04/25 04:31:52;;;;;;;6.70;3.10;;;6.50;99.90;;;;;;5001571;28;20453;-80
2023/04/25 04:34:19;;;;;;;9.70;3.77;;;6.50;99.90;;;;;;4997948;28;20491;-80
2023/04/25 04:36:46;;;;;;;7.87;4.47;;;6.50;99.90;;;;;;5014300;28;20457;-81
2023/04/25 04:39:13;;;;;;;10.73;3.47;;;6.60;99.90;;;;;;5018600;28;20492;-80
2023/04/25 04:41:40;;;;;;;6.70;2.80;;;6.50;99.90;;;;;;5003505;28;20458;-79
2023/04/25 04:44:08;;;;;;;11.17;2.67;;;6.50;99.90;;;;;;5009273;28;20856;-80
2023/04/25 04:46:37;;;;;;;13.00;3.10;;;6.60;99.90;;;;;;5007223;28;20470;-80
2023/04/25 04:49:06;;;;;;;11.90;3.20;;;6.60;99.90;;;;;;4999228;28;20836;-82
2023/04/25 04:51:33;;;;;;;5.87;2.53;;;6.60;99.90;;;;;;5011738;28;20460;-81
2023/04/25 04:54:02;;;;;;;10.57;3.60;;;6.60;99.90;;;;;;5011045;28;20487;-82
2023/04/25 04:56:29;;;;;;;6.53;3.00;;;6.70;99.90;;;;;;5011216;28;20449;-81
2023/04/25 04:58:56;;;;;;;7.37;3.13;;;6.70;99.90;;;;;;5020107;28;20469;-79
2023/04/25 05:01:23;;;;;;;7.40;3.70;;;6.70;99.90;;;;;;5011277;28;20455;-82
2023/04/25 05:03:49;;;;;;;9.37;4.03;;;6.70;99.90;;;;;;5001360;28;20836;-79
2023/04/25 05:06:18;;;;;;;9.07;3.87;;;6.80;99.90;;;;;;5007818;28;20460;-80
2023/04/25 05:08:45;;;;;;;6.13;3.40;;;6.80;99.90;;;;;;5001434;28;20458;-81
2023/04/25 05:11:12;;;;;;;12.13;5.10;;;6.90;99.90;;;;;;5024401;28;20445;-80
2023/04/25 05:13:39;;;;;;;8.00;4.23;;;6.90;99.90;;;;;;5013456;28;20543;-80
2023/04/25 05:16:06;;;;;;;8.50;3.30;;;6.90;99.90;;;;;;5017039;28;20901;-80
2023/04/25 05:18:33;;;;;;;8.83;3.40;;;7.00;99.90;;;;;;5016863;28;20454;-80
2023/04/25 05:20:59;;;;;;;11.07;5.73;;;7.00;99.90;;;;;;5017975;28;20492;-81
2023/04/25 05:23:30;;;;;;;6.87;3.40;;;7.00;99.90;;;;;;5029894;28;20958;-80
2023/04/25 05:25:57;;;;;;;9.63;4.60;;;7.10;99.90;;;;;;5018267;28;20500;-80
2023/04/25 05:28:23;;;;;;;9.53;4.50;;;7.20;99.90;;;;;;5014003;28;20460;-80
2023/04/25 05:30:50;;;;;;;11.13;4.57;;;7.30;99.90;;;;;;5017455;28;20458;-79
2023/04/25 05:33:17;;;;;;;7.43;4.17;;;7.40;93.60;;;;;;5017501;28;20747;-80
2023/04/25 05:35:44;;;;;;;8.60;4.67;;;7.40;96.10;;;;;;5015438;28;20485;-81
2023/04/25 05:38:11;;;;;;;6.93;4.37;;;7.50;91.70;;;;;;5029011;28;20889;-80
2023/04/25 05:40:39;;;;;;;11.03;4.77;;;7.60;99.90;;;;;;5026115;28;21002;-80
2023/04/25 05:43:07;;;;;;;16.43;7.30;;;7.70;99.90;;;;;;5018256;28;20513;-81
2023/04/25 05:45:33;;;;;;;13.87;6.37;;;7.80;94.90;;;;;;5013840;28;20486;-80
2023/04/25 05:48:00;;;;;;;12.47;6.00;;;7.80;95.00;;;;;;5013449;28;20499;-80
2023/04/25 05:50:27;;;;;;;15.47;5.10;;;7.80;93.10;;;;;;5016592;28;20460;-83
2023/04/25 05:52:54;;;;;;;12.60;6.23;;;7.90;99.90;;;;;;5006383;28;20459;-83
2023/04/25 05:55:21;;;;;;;15.47;6.07;;;8.00;95.20;;;;;;5013821;28;20481;-81
2023/04/25 05:57:49;;;;;;;8.77;5.40;;;8.10;97.00;;;;;;5015203;28;20468;-80
2023/04/25 06:00:16;;;;;;;12.13;5.40;;;8.30;84.80;;;;;;5018869;28;20517;-82
2023/04/25 06:02:43;;;;;;;14.70;6.27;;;8.40;97.10;;;;;;5018698;28;20457;-81
2023/04/25 06:05:10;;;;;;;12.73;5.70;;;8.50;81.80;;;;;;5023176;28;21136;-81
2023/04/25 06:07:37;;;;;;;12.80;6.60;;;8.60;43.40;;;;;;5018937;28;20512;-83
2023/04/25 06:10:06;;;;;;;12.60;9.33;;;8.70;14.10;;;;;;5013860;28;20452;-81
2023/04/25 06:12:33;;;;;;;12.70;6.63;;;8.80;7.90;;;;;;5016707;28;20478;-82
2023/04/25 06:15:01;;;;;;;21.70;7.97;;;8.90;35.30;;;;;;5018572;28;20505;-82
2023/04/25 06:17:28;;;;;;;10.40;5.20;;;8.90;24.90;;;;;;5017909;28;20457;-81
2023/04/25 06:19:54;;;;;;;10.60;5.30;;;8.90;24.30;;;;;;5014559;28;20484;-82
2023/04/25 06:22:21;;;;;;;10.17;4.33;;;9.00;1.00;;;;;;5012008;28;20452;-82
2023/04/25 06:24:48;;;;;;;13.33;5.67;;;8.90;1.00;;;;;;5015984;28;21105;-82
2023/04/25 06:27:15;;;;;;;12.50;5.73;;;8.80;1.00;;;;;;5014078;28;20481;-82
2023/04/25 06:29:42;;;;;;;13.40;6.67;;;8.60;1.00;;;;;;5014549;28;20467;-82
2023/04/25 06:32:11;;;;;;;14.13;7.37;;;8.60;1.00;;;;;;5016414;28;20471;-81
2023/04/25 06:34:38;;;;;;;9.10;6.07;;;8.50;1.00;;;;;;5017430;28;20486;-82
2023/04/25 06:37:05;;;;;;;10.07;6.63;;;8.50;19.20;;;;;;5013326;28;20448;-81
2023/04/25 06:39:32;;;;;;;15.47;5.87;;;8.70;1.00;;;;;;5015184;28;20446;-81
2023/04/25 06:41:58;;;;;;;11.60;6.00;;;9.10;1.00;;;;;;5020917;28;20840;-81
2023/04/25 06:44:26;;;;;;;44.67;7.60;;;9.30;1.00;;;;;;5015109;28;20473;-82
2023/04/25 06:46:52;;;;;;;16.50;5.93;;;9.40;1.00;;;;;;5005337;28;20897;-83
2023/04/25 06:49:20;;;;;;;11.73;5.60;;;9.60;1.00;;;;;;5016370;28;20456;-82
2023/04/25 06:51:47;;;;;;;14.10;5.30;;;9.80;1.00;;;;;;5016589;28;20892;-84
2023/04/25 06:54:14;;;;;;;10.37;4.60;;;10.00;1.00;;;;;;5022927;28;20478;-83
2023/04/25 06:56:41;;;;;;;8.83;4.90;;;10.10;99.90;;;;;;5025198;28;20524;-82
2023/04/25 06:59:08;;;;;;;16.80;5.10;;;10.00;99.90;;;;;;5011234;28;20464;-84
2023/04/25 07:01:36;;;;;;;13.27;5.73;;;10.00;99.90;;;;;;5015609;28;20564;-82
2023/04/25 07:04:03;;;;;;;12.73;5.40;;;9.90;99.90;;;;;;5010352;28;20969;-83
2023/04/25 07:06:31;;;;;;;13.83;5.03;;;9.70;99.90;;;;;;5017326;28;20463;-82
2023/04/25 07:08:58;;;;;;;13.13;5.20;;;9.60;1.00;;;;;;5008938;28;20462;-82
2023/04/25 07:11:24;;;;;;;11.33;4.57;;;9.50;1.00;;;;;;5016555;28;20535;-81
2023/04/25 07:13:51;;;;;;;12.03;4.80;;;9.50;1.00;;;;;;5013216;28;20456;-82
2023/04/25 07:16:18;;;;;;;9.77;4.60;;;9.30;1.00;;;;;;5013328;28;20822;-82
2023/04/25 07:18:45;;;;;;;14.07;5.87;;;9.40;1.00;;;;;;5015624;28;20463;-82
2023/04/25 07:21:12;;;;;;;9.07;4.77;;;9.50;1.00;;;;;;5015074;28;20500;-83
2023/04/25 07:23:40;;;;;;;18.13;6.03;;;9.90;99.90;;;;;;5019526;28;20469;-82
2023/04/25 07:26:08;;;;;;;11.33;5.33;;;9.90;99.90;;;;;;5013302;28;20489;-83
2023/04/25 07:28:34;;;;;;;6.60;3.90;;;10.20;1.00;;;;;;5026223;28;20502;-81
2023/04/25 07:31:01;;;;;;;11.40;4.67;;;10.40;21.70;;;;;;5015397;28;20980;-81
2023/04/25 07:33:28;;;;;;;7.00;4.03;;;10.60;99.90;;;;;;5020188;28;20452;-83
2023/04/25 07:35:55;;;;;;;8.97;4.00;;;10.40;99.90;;;;;;5027919;28;20547;-84
2023/04/25 07:38:22;;;;;;;5.63;3.10;;;10.50;1.00;;;;;;5028230;28;20512;-83
2023/04/25 07:40:51;;;;;;;11.93;4.13;;;10.80;99.90;;;;;;5022217;28;20560;-83
2023/04/25 07:43:18;;;;;;;8.30;2.87;;;11.10;1.00;;;;;;5031745;28;20528;-83
2023/04/25 07:45:45;;;;;;;8.67;3.60;;;11.20;99.90;;;;;;5033444;28;20718;-84
2023/04/25 07:48:12;;;;;;;11.10;4.40;;;11.30;1.00;;;;;;5025481;28;20453;-83
2023/04/25 07:50:38;;;;;;;9.07;3.60;;;11.40;90.70;;;;;;5012201;28;20464;-83
2023/04/25 07:53:06;;;;;;;7.03;2.67;;;11.40;95.80;;;;;;5024336;28;20463;-84
2023/04/25 07:55:32;;;;;;;9.53;3.20;;;11.10;99.90;;;;;;5022229;28;20495;-83
2023/04/25 07:58:01;;;;;;;7.10;2.47;;;11.10;99.90;;;;;;5013789;28;20461;-82
2023/04/25 08:00:28;;;;;;;5.67;3.00;;;11.40;99.90;;;;;;5019296;28;20500;-82
2023/04/25 08:02:54;;;;;;;7.30;2.30;;;11.90;99.90;;;;;;5029291;28;20461;-83
2023/04/25 08:05:22;;;;;;;7.17;2.50;;;12.20;99.90;;;;;;5028357;28;20940;-83
2023/04/25 08:07:48;;;;;;;7.27;2.07;;;12.50;1.00;;;;;;5041956;28;20549;-82
2023/04/25 08:10:15;;;;;;;15.30;2.13;;;12.80;1.00;;;;;;5036614;28;20521;-83
2023/04/25 08:12:42;;;;;;;4.73;2.23;;;12.90;1.00;;;;;;5034897;28;20468;-82
2023/04/25 08:15:11;;;;;;;6.20;2.33;;;13.10;1.00;;;;;;5034764;28;20477;-83
2023/04/25 08:17:38;;;;;;;8.03;2.60;;;12.80;1.00;;;;;;5030964;28;20624;-83
2023/04/25 08:20:06;;;;;;;7.93;2.90;;;12.60;1.00;;;;;;5036907;28;20521;-84
2023/04/25 08:22:33;;;;;;;5.40;2.47;;;12.80;1.00;;;;;;5029127;28;20457;-83
2023/04/25 08:25:00;;;;;;;12.63;2.43;;;13.00;1.00;;;;;;5022255;28;21039;-80
2023/04/25 08:27:27;;;;;;;5.13;2.40;;;13.50;1.00;;;;;;5026016;28;20514;-82
2023/04/25 08:29:54;;;;;;;5.87;2.13;;;13.60;1.00;;;;;;5015734;28;20518;-82
2023/04/25 08:32:22;;;;;;;7.00;1.70;;;13.40;1.00;;;;;;5020214;28;21047;-83
2023/04/25 08:34:49;;;;;;;5.33;1.70;;;12.80;1.00;;;;;;5023937;28;21059;-82
2023/04/25 08:37:16;;;;;;;9.20;1.97;;;12.90;1.00;;;;;;5023461;28;20482;-83
2023/04/25 08:39:43;;;;;;;7.40;1.60;;;12.70;1.00;;;;;;5013060;28;20461;-82
2023/04/25 08:42:10;;;;;;;5.70;1.80;;;12.80;1.00;;;;;;5020505;28;20525;-83
2023/04/25 08:44:37;;;;;;;4.60;2.30;;;12.70;1.00;;;;;;5024389;28;20478;-81
2023/04/25 08:47:05;;;;;;;5.33;1.80;;;12.60;1.00;;;;;;5026554;28;20465;-83
2023/04/25 08:49:34;;;;;;;7.20;1.97;;;12.90;1.00;;;;;;5029314;28;20489;-84
2023/04/25 08:52:03;;;;;;;3.90;1.50;;;12.90;1.00;;;;;;5017492;28;20449;-83
2023/04/25 08:54:32;;;;;;;7.40;2.07;;;13.70;1.00;;;;;;5027721;28;20484;-82
2023/04/25 08:57:03;;;;;;;7.67;2.00;;;14.60;1.00;;;;;;5025524;28;20458;-83
2023/04/25 08:59:31;;;;;;;6.30;1.80;;;16.50;1.00;;;;;;5014701;28;20509;-83
2023/04/25 09:01:58;;;;;;;4.93;1.77;;;17.50;1.00;;;;;;5015019;28;21013;-85
2023/04/25 09:04:25;;;;;;;4.80;1.70;;;18.80;1.00;;;;;;5015061;28;20480;-82
2023/04/25 09:06:54;;;;;;;5.80;1.80;;;18.80;99.90;;;;;;5013790;28;20496;-83
2023/04/25 09:09:21;;;;;;;7.23;1.50;;;18.40;99.90;;;;;;5013485;28;20568;-83
2023/04/25 09:11:48;;;;;;;12.37;2.10;;;17.00;99.90;;;;;;5008251;28;20461;-82
2023/04/25 09:14:16;;;;;;;5.63;2.80;;;17.40;99.90;;;;;;5013754;28;20869;-83
2023/04/25 09:17:02;;;;;;;8.03;1.80;;;17.60;99.90;;;;;;5016585;28;20528;-82
2023/04/25 09:19:30;;;;;;;6.90;2.20;;;18.30;99.90;;;;;;5015618;28;20560;-83
2023/04/25 09:22:00;;;;;;;7.57;1.90;;;17.40;99.90;;;;;;5021216;28;20507;-83
2023/04/25 09:26:58;;;;;;;5.00;2.10;;;15.50;99.90;;;;;;5067963;22;20516;-77
2023/04/25 09:29:30;;;;;;;4.77;2.27;;;14.50;99.90;;;;;;5051106;28;20455;-76
2023/04/25 09:32:12;;;;;;;5.53;2.10;;;14.20;99.90;;;;;;5050543;28;20453;-77
2023/04/25 09:34:41;;;;;;;6.20;2.23;;;13.90;99.90;;;;;;5050265;28;20454;-77
2023/04/25 09:37:11;;;;;;;4.73;2.10;;;13.80;99.90;;;;;;5045117;28;20458;-77
2023/04/25 09:39:38;;;;;;;5.03;1.80;;;13.80;99.90;;;;;;5051573;28;21054;-77
2023/04/25 09:42:06;;;;;;;5.33;1.67;;;13.70;99.90;;;;;;5049288;28;20501;-77
2023/04/25 09:44:33;;;;;;;4.87;2.70;;;13.50;99.90;;;;;;5053005;28;20453;-79
2023/04/25 09:47:00;;;;;;;10.37;2.83;;;12.70;99.90;;;;;;5055941;28;20799;-79
2023/04/25 09:49:27;;;;;;;5.57;1.80;;;12.70;99.90;;;;;;5054068;28;20485;-78
2023/04/25 09:51:58;;;;;;;4.20;1.70;;;12.90;99.90;;;;;;5054310;28;20477;-79
2023/04/25 09:54:27;;;;;;;2.87;1.00;;;12.70;99.90;;;;;;5051904;28;20463;-76
2023/04/25 09:56:54;;;;;;;4.70;1.03;;;13.50;99.90;;;;;;5050951;28;20490;-76
2023/04/25 09:59:22;;;;;;;4.20;1.63;;;15.10;99.90;;;;;;5050965;28;20454;-77
2023/04/25 10:01:50;;;;;;;5.33;2.10;;;17.30;99.90;;;;;;5050526;28;20476;-76
2023/04/25 10:04:23;;;;;;;4.43;1.20;;;19.30;99.90;;;;;;5051689;28;20455;-77
2023/04/25 10:06:52;;;;;;;3.70;1.70;;;20.60;99.90;;;;;;5049758;28;20848;-75
2023/04/25 10:09:22;;;;;;;3.70;1.50;;;20.90;99.90;;;;;;5051654;28;20458;-76
2023/04/25 10:11:52;;;;;;;7.67;2.00;;;20.50;99.90;;;;;;5050617;28;20441;-76
2023/04/25 10:14:20;;;;;;;5.20;1.60;;;21.70;99.90;;;;;;5050959;28;20458;-75
2023/04/25 10:16:49;;;;;;;4.57;1.33;;;21.90;99.90;;;;;;5047604;28;20540;-77
2023/04/25 10:19:17;;;;;;;8.17;1.60;;;21.40;99.90;;;;;;5050287;28;20830;-76
2023/04/25 10:21:50;;;;;;;4.83;1.27;;;20.30;99.90;;;;;;5049191;28;20497;-77
2023/04/25 10:24:18;;;;;;;4.07;1.50;;;20.60;99.90;;;;;;5048896;28;20514;-76
2023/04/25 10:26:45;;;;;;;3.47;1.30;;;19.70;99.90;;;;;;5050909;28;20484;-76
2023/04/25 10:29:13;;;;;;;3.17;1.47;;;18.70;99.90;;;;;;5049514;28;20456;-77
2023/04/25 10:31:47;;;;;;;4.43;1.67;;;17.60;99.90;;;;;;5050358;28;20815;-77
2023/04/25 10:34:14;;;;;;;3.37;1.40;;;16.60;99.90;;;;;;5050931;28;20436;-75
2023/04/25 10:36:40;;;;;;;5.60;1.53;;;15.40;99.90;;;;;;5050882;28;20477;-77
2023/04/25 10:39:09;;;;;;;5.60;1.90;;;14.70;99.90;;;;;;5052704;28;20503;-76
2023/04/25 10:41:47;;;;;;;4.13;1.20;;;14.30;99.90;;;;;;5053072;28;20485;-76
2023/04/25 10:44:16;;;;;;;6.13;1.10;;;13.60;99.90;;;;;;5051655;28;20962;-77
2023/04/25 10:46:46;;;;;;;4.20;1.70;;;13.20;99.90;;;;;;5053026;28;20475;-79
2023/04/25 10:49:30;;;;;;;7.73;1.40;;;13.40;99.90;;;;;;5054686;28;20835;-76
2023/04/25 10:52:16;;;;;;;5.43;2.27;;;13.40;99.90;;;;;;5050700;28;21074;-75
2023/04/25 10:54:44;;;;;;;3.47;1.00;;;13.30;99.90;;;;;;5051069;28;20953;-76
2023/04/25 10:57:27;;;;;;;3.57;2.00;;;12.90;99.90;;;;;;5051527;28;20822;-76
2023/04/25 10:59:58;;;;;;;4.50;1.80;;;12.60;99.90;;;;;;5051991;28;20800;-76
2023/04/25 11:02:27;;;;;;;7.60;1.30;;;12.10;99.90;;;;;;5053493;28;20465;-78
2023/04/25 11:04:54;;;;;;;6.63;1.70;;;11.80;99.90;;;;;;5051997;28;20874;-77
2023/04/25 11:07:29;;;;;;;5.33;2.17;;;11.60;99.90;;;;;;5051505;28;21286;-77
2023/04/25 11:09:56;;;;;;;4.73;1.67;;;11.10;99.90;;;;;;5045932;28;20462;-77
2023/04/25 11:12:26;;;;;;;4.67;1.90;;;11.00;1.00;;;;;;5051186;28;20454;-76
2023/04/25 11:15:02;;;;;;;6.03;1.70;;;11.00;1.00;;;;;;5050117;28;20515;-76
2023/04/25 11:17:29;;;;;;;7.67;2.00;;;11.00;1.00;;;;;;5050922;28;20451;-76
2023/04/25 11:19:56;;;;;;;4.13;1.50;;;11.00;1.00;;;;;;5050608;28;20488;-77
2023/04/25 11:22:24;;;;;;;5.80;1.50;;;11.00;1.00;;;;;;5049418;28;20491;-76
2023/04/25 11:24:51;;;;;;;2.90;1.20;;;11.10;1.00;;;;;;5050332;28;20452;-76
2023/04/25 11:27:18;;;;;;;3.30;1.70;;;10.90;1.00;;;;;;5048100;28;20444;-78
2023/04/25 11:29:47;;;;;;;2.93;1.50;;;10.80;1.00;;;;;;5046842;28;20487;-78
2023/04/25 11:32:16;;;;;;;7.93;2.07;;;11.00;1.00;;;;;;5052218;28;20455;-77
2023/04/25 11:34:46;;;;;;;5.93;1.77;;;11.30;1.00;;;;;;5053602;28;20548;-79
2023/04/25 11:37:13;;;;;;;5.27;1.40;;;11.70;1.00;;;;;;5054632;28;20463;-78
2023/04/25 11:39:44;;;;;;;3.80;1.63;;;12.20;1.00;;;;;;5053940;28;20529;-77
2023/04/25 11:42:11;;;;;;;3.60;1.50;;;12.80;1.00;;;;;;5052190;28;20531;-78
2023/04/25 11:44:39;;;;;;;5.97;1.80;;;13.70;1.00;;;;;;5056545;28;20532;-79
2023/04/25 11:47:06;;;;;;;4.03;1.80;;;14.10;1.00;;;;;;5060664;28;20459;-78
2023/04/25 11:49:35;;;;;;;3.67;1.30;;;15.70;1.00;;;;;;5055504;28;20540;-76
2023/04/25 11:52:02;;;;;;;4.73;1.83;;;18.40;1.00;;;;;;5053554;28;20467;-80
2023/04/25 11:54:29;;;;;;;3.80;1.50;;;20.70;99.90;;;;;;5060518;28;20443;-80
2023/04/25 11:56:56;;;;;;;2.40;1.67;;;23.10;99.90;;;;;;5057327;28;20479;-80
2023/04/25 11:59:26;;;;;;;3.97;1.40;;;24.30;99.90;;;;;;5054260;28;20506;-79
2023/04/25 12:01:53;;;;;;;5.53;1.70;;;25.60;99.90;;;;;;5046077;28;20488;-78
2023/04/25 12:04:22;;;;;;;2.90;1.33;;;26.60;99.90;;;;;;5051771;28;20502;-78
2023/04/25 12:06:51;;;;;;;3.07;1.10;;;26.80;99.90;;;;;;5051436;28;20497;-77
2023/04/25 12:09:21;;;;;;;3.17;1.40;;;28.50;99.90;;;;;;5048562;28;20448;-77
2023/04/25 12:11:49;;;;;;;27.20;16.80;;;29.30;99.90;;;;;;5049371;28;20476;-78
2023/04/25 12:14:23;;;;;;;6.13;3.63;;;29.90;99.90;;;;;;5049940;28;20586;-77
2023/04/25 12:16:52;;;;;;;2.73;1.20;;;30.80;99.90;;;;;;5047895;28;20481;-78
2023/04/25 12:19:19;;;;;;;3.00;1.07;;;31.10;99.90;;;;;;5047293;28;20463;-78
2023/04/25 12:21:47;;;;;;;2.80;1.17;;;30.70;99.90;;;;;;5053266;28;20479;-77
2023/04/25 12:24:19;;;;;;;3.70;1.43;;;30.50;99.90;;;;;;5058049;28;20469;-78
2023/04/25 12:26:51;;;;;;;3.30;1.60;;;27.40;99.90;;;;;;5056325;28;20491;-78
2023/04/25 12:29:19;;;;;;;2.53;1.00;;;26.00;99.90;;;;;;5051215;28;20448;-78
2023/04/25 12:31:46;;;;;;;3.07;1.10;;;24.00;99.90;;;;;;5047597;28;20832;-77
2023/04/25 12:34:13;;;;;;;3.30;1.07;;;24.30;99.90;;;;;;5049596;28;20448;-76
2023/04/25 12:36:40;;;;;;;2.63;1.10;;;24.10;99.90;;;;;;5053582;28;20586;-77
2023/04/25 12:39:07;;;;;;;3.77;1.47;;;24.60;99.90;;;;;;5058079;28;20451;-78
2023/04/25 12:41:35;;;;;;;2.70;1.30;;;23.90;99.90;;;;;;5053655;28;20460;-78
2023/04/25 12:44:02;;;;;;;4.50;1.50;;;21.70;99.90;;;;;;5053025;28;20448;-77
2023/04/25 12:46:29;;;;;;;2.53;1.10;;;19.80;99.90;;;;;;5056176;28;20850;-77
2023/04/25 12:48:57;;;;;;;2.67;1.10;;;18.70;99.90;;;;;;5055329;28;20477;-77
2023/04/25 12:51:24;;;;;;;5.27;1.23;;;18.00;99.90;;;;;;5048190;28;20897;-76
2023/04/25 12:53:52;;;;;;;5.93;1.03;;;16.90;99.90;;;;;;5054312;28;20545;-77
2023/04/25 12:56:19;;;;;;;5.27;1.20;;;16.00;99.90;;;;;;5051619;28;20471;-77